Peotone Weather
Station Historical Data
 
Daily Summary for March 02, 2015 Units:  English    Metric   Both
« Previous Day
Next Day »
Daily Weekly Monthly Yearly Custom
  Current: High: Low: Average:
Temperature: 27.2 °F 30.7 °F 9.4 °F 18.9 °F
Dew Point: 18.7 °F 21.3 °F 6.6 °F 12.9 °F
Humidity: 70% 90% 61% 78%
Wind Speed: 2.3mph 9.2mph 0.0mph 4.5mph
Wind Gust: 4.6mph 11.5mph - -
WindSouth - - West
Pressure: 30.47 in 30.59 in 30.44 in -
Precipitation: 0.00 in      
Historical Graphs
 
 
Tabular Data for March 02, 2015
Time Temperature Dew Point Pressure Wind Wind Speed Wind Gust Humidity Rainfall Rate (Hourly) solar Conditions
00:02 15.8 °F 11.8 °F 30.44 in WNW 5.8 mph 6.9 mph 84% 0.00 in 0.00 W/m2
00:07 15.5 °F 11.5 °F 30.44 in West 3.4 mph 4.6 mph 84% 0.00 in 0.00 W/m2
00:12 15.1 °F 11.1 °F 30.44 in West 4.6 mph 6.9 mph 84% 0.00 in 0.00 W/m2
00:18 14.8 °F 10.9 °F 30.44 in WNW 6.9 mph 8.1 mph 84% 0.00 in 0.00 W/m2
00:23 14.8 °F 10.9 °F 30.44 in WNW 5.8 mph 8.1 mph 84% 0.00 in 0.00 W/m2
00:28 14.8 °F 11.1 °F 30.45 in WNW 4.6 mph 9.2 mph 85% 0.00 in 0.00 W/m2
00:33 14.8 °F 11.1 °F 30.45 in WNW 4.6 mph 10.3 mph 85% 0.00 in 0.00 W/m2
00:38 14.7 °F 10.8 °F 30.46 in WNW 9.2 mph 10.3 mph 84% 0.00 in 0.00 W/m2
00:43 14.6 °F 10.7 °F 30.45 in WNW 4.6 mph 9.2 mph 84% 0.00 in 0.00 W/m2
00:48 14.5 °F 10.6 °F 30.45 in WNW 6.9 mph 11.5 mph 84% 0.00 in 0.00 W/m2
00:53 14.3 °F 10.4 °F 30.46 in WNW 4.6 mph 8.1 mph 84% 0.00 in 0.00 W/m2
00:59 14.0 °F 10.1 °F 30.47 in WNW 4.6 mph 6.9 mph 84% 0.00 in 0.00 W/m2
01:04 13.8 °F 9.9 °F 30.48 in WNW 5.8 mph 9.2 mph 84% 0.00 in 0.00 W/m2
01:09 13.6 °F 9.7 °F 30.48 in WNW 6.9 mph 9.2 mph 84% 0.00 in 0.00 W/m2
01:14 13.6 °F 9.7 °F 30.48 in West 6.9 mph 8.1 mph 84% 0.00 in 0.00 W/m2
01:19 13.4 °F 9.5 °F 30.47 in West 6.9 mph 9.2 mph 84% 0.00 in 0.00 W/m2
01:24 13.1 °F 9.2 °F 30.48 in West 5.8 mph 6.9 mph 84% 0.00 in 0.00 W/m2
01:29 13.0 °F 9.1 °F 30.48 in WNW 5.8 mph 8.1 mph 84% 0.00 in 0.00 W/m2
01:34 12.9 °F 9.0 °F 30.48 in WNW 4.6 mph 6.9 mph 84% 0.00 in 0.00 W/m2
01:40 12.8 °F 8.9 °F 30.48 in WNW 4.6 mph 6.9 mph 84% 0.00 in 0.00 W/m2
01:45 12.7 °F 8.8 °F 30.48 in WNW 4.6 mph 5.8 mph 84% 0.00 in 0.00 W/m2
01:50 12.7 °F 8.8 °F 30.49 in WNW 4.6 mph 6.9 mph 84% 0.00 in 0.00 W/m2
01:55 12.6 °F 8.7 °F 30.49 in WNW 2.3 mph 6.9 mph 84% 0.00 in 0.00 W/m2
02:00 12.8 °F 9.1 °F 30.49 in WNW 5.8 mph 9.2 mph 85% 0.00 in 0.00 W/m2
02:05 12.9 °F 9.0 °F 30.49 in West 5.8 mph 8.1 mph 84% 0.00 in 0.00 W/m2
02:10 12.8 °F 8.9 °F 30.49 in West 4.6 mph 6.9 mph 84% 0.00 in 0.00 W/m2
02:15 12.8 °F 8.9 °F 30.49 in West 5.8 mph 8.1 mph 84% 0.00 in 0.00 W/m2
02:20 12.9 °F 9.0 °F 30.49 in West 4.6 mph 6.9 mph 84% 0.00 in 0.00 W/m2
02:26 13.0 °F 9.1 °F 30.48 in West 6.9 mph 8.1 mph 84% 0.00 in 0.00 W/m2
02:31 12.8 °F 8.9 °F 30.49 in West 9.2 mph 9.2 mph 84% 0.00 in 0.00 W/m2
02:36 12.8 °F 8.9 °F 30.49 in West 4.6 mph 8.1 mph 84% 0.00 in 0.00 W/m2
02:41 12.7 °F 8.8 °F 30.49 in West 5.8 mph 8.1 mph 84% 0.00 in 0.00 W/m2
02:46 12.6 °F 8.7 °F 30.49 in West 4.6 mph 5.8 mph 84% 0.00 in 0.00 W/m2
02:51 12.4 °F 8.5 °F 30.49 in West 3.4 mph 6.9 mph 84% 0.00 in 0.00 W/m2
02:56 12.3 °F 8.4 °F 30.49 in West 5.8 mph 6.9 mph 84% 0.00 in 0.00 W/m2
03:01 12.3 °F 8.4 °F 30.49 in West 5.8 mph 5.8 mph 84% 0.00 in 0.00 W/m2
03:06 12.2 °F 8.3 °F 30.49 in West 3.4 mph 5.8 mph 84% 0.00 in 0.00 W/m2
03:11 12.1 °F 8.2 °F 30.49 in West 4.6 mph 4.6 mph 84% 0.00 in 0.00 W/m2
03:16 11.9 °F 8.3 °F 30.49 in West 4.6 mph 6.9 mph 85% 0.00 in 0.00 W/m2
03:21 11.9 °F 8.3 °F 30.49 in West 2.3 mph 5.8 mph 85% 0.00 in 0.00 W/m2
03:26 11.9 °F 8.3 °F 30.49 in West 3.4 mph 5.8 mph 85% 0.00 in 0.00 W/m2
03:31 11.8 °F 8.2 °F 30.49 in West 5.8 mph 5.8 mph 85% 0.00 in 0.00 W/m2
03:37 11.9 °F 8.5 °F 30.49 in West 8.1 mph 8.1 mph 86% 0.00 in 0.00 W/m2
03:42 12.0 °F 8.6 °F 30.49 in West 5.8 mph 5.8 mph 86% 0.00 in 0.00 W/m2
03:47 11.9 °F 8.5 °F 30.50 in West 4.6 mph 5.8 mph 86% 0.00 in 0.00 W/m2
03:52 11.8 °F 8.4 °F 30.50 in West 3.4 mph 5.8 mph 86% 0.00 in 0.00 W/m2
03:57 11.7 °F 8.3 °F 30.50 in West 5.8 mph 5.8 mph 86% 0.00 in 0.00 W/m2
04:02 11.7 °F 8.3 °F 30.50 in West 5.8 mph 5.8 mph 86% 0.00 in 0.00 W/m2
04:07 11.9 °F 8.8 °F 30.51 in West 5.8 mph 8.1 mph 87% 0.00 in 0.00 W/m2
04:12 12.2 °F 9.1 °F 30.50 in West 5.8 mph 9.2 mph 87% 0.00 in 0.00 W/m2
04:18 12.3 °F 9.2 °F 30.51 in West 4.6 mph 8.1 mph 87% 0.00 in 0.00 W/m2
04:23 12.4 °F 9.3 °F 30.51 in West 5.8 mph 9.2 mph 87% 0.00 in 0.00 W/m2
04:28 12.4 °F 9.0 °F 30.51 in West 6.9 mph 8.1 mph 86% 0.00 in 0.00 W/m2
04:33 12.3 °F 8.9 °F 30.51 in West 8.1 mph 9.2 mph 86% 0.00 in 0.00 W/m2
04:38 12.1 °F 8.7 °F 30.52 in West 4.6 mph 9.2 mph 86% 0.00 in 0.00 W/m2
04:43 11.7 °F 8.3 °F 30.51 in West 4.6 mph 9.2 mph 86% 0.00 in 0.00 W/m2
04:48 11.5 °F 8.1 °F 30.52 in West 3.4 mph 8.1 mph 86% 0.00 in 0.00 W/m2
04:53 11.4 °F 8.0 °F 30.51 in West 5.8 mph 9.2 mph 86% 0.00 in 0.00 W/m2
04:59 11.4 °F 8.3 °F 30.51 in West 4.6 mph 8.1 mph 87% 0.00 in 0.00 W/m2
05:04 11.1 °F 7.7 °F 30.51 in West 3.4 mph 5.8 mph 86% 0.00 in 0.00 W/m2
05:09 10.9 °F 7.5 °F 30.51 in West 1.1 mph 4.6 mph 86% 0.00 in 0.00 W/m2
05:14 10.7 °F 7.3 °F 30.52 in West 3.4 mph 4.6 mph 86% 0.00 in 0.00 W/m2
05:19 10.7 °F 7.6 °F 30.52 in West 3.4 mph 6.9 mph 87% 0.00 in 0.00 W/m2
05:24 10.5 °F 7.4 °F 30.52 in West 4.6 mph 5.8 mph 87% 0.00 in 0.00 W/m2
05:29 10.2 °F 7.1 °F 30.53 in West 5.8 mph 5.8 mph 87% 0.00 in 0.00 W/m2
05:34 10.1 °F 7.0 °F 30.53 in West 3.4 mph 5.8 mph 87% 0.00 in 0.00 W/m2
05:39 10.1 °F 7.0 °F 30.53 in West 4.6 mph 5.8 mph 87% 0.00 in 0.00 W/m2
05:44 10.1 °F 7.0 °F 30.53 in West 4.6 mph 6.9 mph 87% 0.00 in 0.00 W/m2
05:50 10.2 °F 7.4 °F 30.53 in West 3.4 mph 5.8 mph 88% 0.00 in 0.00 W/m2
05:55 10.2 °F 7.4 °F 30.53 in West 3.4 mph 4.6 mph 88% 0.00 in 0.00 W/m2
06:00 10.1 °F 7.3 °F 30.53 in West 3.4 mph 5.8 mph 88% 0.00 in 0.00 W/m2
06:05 10.0 °F 7.2 °F 30.53 in West 3.4 mph 4.6 mph 88% 0.00 in 0.00 W/m2
06:10 9.9 °F 7.1 °F 30.54 in West 3.4 mph 8.1 mph 88% 0.00 in 0.00 W/m2
06:15 9.8 °F 7.0 °F 30.54 in West 3.4 mph 6.9 mph 88% 0.00 in 0.00 W/m2
06:20 9.6 °F 6.8 °F 30.54 in West 3.4 mph 5.8 mph 88% 0.00 in 0.00 W/m2
06:25 9.6 °F 6.8 °F 30.54 in West 4.6 mph 6.9 mph 88% 0.00 in 5.00 W/m2
06:30 9.4 °F 6.6 °F 30.54 in WNW 6.9 mph 6.9 mph 88% 0.00 in 7.00 W/m2
06:36 9.5 °F 6.9 °F 30.54 in WNW 4.6 mph 8.1 mph 89% 0.00 in 12.00 W/m2
06:41 9.6 °F 7.0 °F 30.54 in WNW 4.6 mph 5.8 mph 89% 0.00 in 14.00 W/m2
06:46 9.8 °F 7.2 °F 30.55 in WNW 3.4 mph 6.9 mph 89% 0.00 in 18.00 W/m2
06:51 9.8 °F 7.2 °F 30.55 in WNW 4.6 mph 6.9 mph 89% 0.00 in 21.00 W/m2
06:56 9.7 °F 7.1 °F 30.55 in WNW 4.6 mph 6.9 mph 89% 0.00 in 25.00 W/m2
07:01 9.7 °F 7.1 °F 30.55 in West 3.4 mph 6.9 mph 89% 0.00 in 35.00 W/m2
07:06 9.8 °F 7.2 °F 30.55 in WNW 5.8 mph 8.1 mph 89% 0.00 in 44.00 W/m2
07:11 10.0 °F 7.4 °F 30.55 in WNW 4.6 mph 5.8 mph 89% 0.00 in 63.00 W/m2
07:16 10.3 °F 7.7 °F 30.55 in WNW 5.8 mph 5.8 mph 89% 0.00 in 121.00 W/m2
07:21 10.6 °F 8.0 °F 30.55 in WNW 8.1 mph 9.2 mph 89% 0.00 in 120.00 W/m2
07:27 11.0 °F 8.6 °F 30.55 in WNW 5.8 mph 5.8 mph 90% 0.00 in 132.00 W/m2
07:32 11.5 °F 8.9 °F 30.55 in WNW 2.3 mph 3.4 mph 89% 0.00 in 167.00 W/m2
07:37 11.5 °F 8.9 °F 30.55 in NW 5.8 mph 6.9 mph 89% 0.00 in 174.00 W/m2
07:42 11.7 °F 9.1 °F 30.56 in WNW 5.8 mph 8.1 mph 89% 0.00 in 216.00 W/m2
07:47 12.2 °F 9.6 °F 30.55 in WNW 5.8 mph 8.1 mph 89% 0.00 in 234.00 W/m2
07:52 12.7 °F 9.8 °F 30.56 in WNW 3.4 mph 6.9 mph 88% 0.00 in 248.00 W/m2
07:57 13.0 °F 10.1 °F 30.56 in WNW 5.8 mph 8.1 mph 88% 0.00 in 234.00 W/m2
08:02 13.1 °F 10.0 °F 30.56 in WNW 6.9 mph 6.9 mph 87% 0.00 in 281.00 W/m2
08:07 13.2 °F 10.1 °F 30.56 in WNW 4.6 mph 5.8 mph 87% 0.00 in 294.00 W/m2
08:13 13.2 °F 10.1 °F 30.57 in WNW 5.8 mph 6.9 mph 87% 0.00 in 302.00 W/m2
08:18 13.5 °F 10.1 °F 30.57 in WNW 4.6 mph 6.9 mph 86% 0.00 in 292.00 W/m2
08:23 13.8 °F 10.4 °F 30.57 in WNW 3.4 mph 5.8 mph 86% 0.00 in 318.00 W/m2
08:28 13.9 °F 10.2 °F 30.57 in WNW 4.6 mph 4.6 mph 85% 0.00 in 343.00 W/m2
08:33 14.3 °F 10.6 °F 30.57 in WNW 6.9 mph 6.9 mph 85% 0.00 in 380.00 W/m2
08:38 14.5 °F 10.8 °F 30.57 in WNW 6.9 mph 6.9 mph 85% 0.00 in 369.00 W/m2
08:43 15.1 °F 11.4 °F 30.57 in NW 5.8 mph 9.2 mph 85% 0.00 in 404.00 W/m2
08:48 15.3 °F 11.3 °F 30.57 in NW 3.4 mph 9.2 mph 84% 0.00 in 411.00 W/m2
08:54 15.5 °F 11.3 °F 30.57 in NW 6.9 mph 9.2 mph 83% 0.00 in 415.00 W/m2
08:59 15.7 °F 11.5 °F 30.57 in NW 8.1 mph 8.1 mph 83% 0.00 in 413.00 W/m2
09:04 15.8 °F 11.6 °F 30.58 in NW 5.8 mph 8.1 mph 83% 0.00 in 401.00 W/m2
09:09 16.1 °F 11.9 °F 30.57 in NW 6.9 mph 8.1 mph 83% 0.00 in 308.00 W/m2
09:14 16.6 °F 12.4 °F 30.57 in NW 5.8 mph 6.9 mph 83% 0.00 in 475.00 W/m2
09:19 16.8 °F 12.3 °F 30.58 in NW 4.6 mph 6.9 mph 82% 0.00 in 478.00 W/m2
09:24 17.1 °F 12.6 °F 30.58 in NW 5.8 mph 6.9 mph 82% 0.00 in 369.00 W/m2
09:29 17.7 °F 13.1 °F 30.58 in NW 3.4 mph 4.6 mph 82% 0.00 in 148.00 W/m2
09:34 18.4 °F 13.6 °F 30.58 in NW 3.4 mph 5.8 mph 81% 0.00 in 107.00 W/m2
09:40 18.9 °F 13.8 °F 30.58 in NW 2.3 mph 4.6 mph 80% 0.00 in 132.00 W/m2
09:45 19.3 °F 14.1 °F 30.58 in NW 3.4 mph 4.6 mph 80% 0.00 in 114.00 W/m2
09:50 19.9 °F 14.7 °F 30.58 in NW 3.4 mph 4.6 mph 80% 0.00 in 308.00 W/m2
09:55 19.9 °F 14.4 °F 30.58 in NW 4.6 mph 5.8 mph 79% 0.00 in 225.00 W/m2
10:00 19.8 °F 14.4 °F 30.58 in NW 4.6 mph 5.8 mph 79% 0.00 in 123.00 W/m2
10:05 19.7 °F 14.3 °F 30.58 in NW 3.4 mph 3.4 mph 79% 0.00 in 279.00 W/m2
10:10 19.8 °F 14.4 °F 30.58 in NW 3.4 mph 4.6 mph 79% 0.00 in 114.00 W/m2
10:15 20.3 °F 14.8 °F 30.58 in NW 5.8 mph 5.8 mph 79% 0.00 in 153.00 W/m2
10:21 20.9 °F 15.4 °F 30.59 in NW 4.6 mph 4.6 mph 79% 0.00 in 120.00 W/m2
10:26 21.5 °F 15.7 °F 30.59 in NW 3.4 mph 4.6 mph 78% 0.00 in 121.00 W/m2
10:31 21.8 °F 16.0 °F 30.59 in Calm   4.6 mph 78% 0.00 in 146.00 W/m2
10:36 22.5 °F 16.4 °F 30.59 in NW 1.1 mph 3.4 mph 77% 0.00 in 192.00 W/m2
10:41 23.0 °F 16.6 °F 30.59 in NW 2.3 mph 3.4 mph 76% 0.00 in 167.00 W/m2
10:46 23.1 °F 16.4 °F 30.59 in NW 3.4 mph 4.6 mph 75% 0.00 in 158.00 W/m2
10:51 23.0 °F 16.3 °F 30.59 in NW 4.6 mph 5.8 mph 75% 0.00 in 134.00 W/m2
10:56 23.4 °F 17.0 °F 30.59 in NW 3.4 mph 4.6 mph 76% 0.00 in 158.00 W/m2
11:01 24.0 °F 17.2 °F 30.59 in NW 2.3 mph 2.3 mph 75% 0.00 in 236.00 W/m2
11:06 24.6 °F 17.2 °F 30.59 in NW 1.1 mph 1.1 mph 73% 0.00 in 758.00 W/m2
11:12 25.2 °F 17.8 °F 30.59 in NW 2.3 mph 2.3 mph 73% 0.00 in 738.00 W/m2
11:17 26.0 °F 18.2 °F 30.59 in NW 3.4 mph 3.4 mph 72% 0.00 in 717.00 W/m2
11:22 27.1 °F 19.0 °F 30.59 in NW 3.4 mph 4.6 mph 71% 0.00 in 717.00 W/m2
11:27 26.9 °F 18.4 °F 30.59 in NW 3.4 mph 4.6 mph 70% 0.00 in 733.00 W/m2
11:32 27.2 °F 19.1 °F 30.59 in NW 3.4 mph 3.4 mph 71% 0.00 in 675.00 W/m2
11:37 27.0 °F 18.2 °F 30.58 in NW 1.1 mph 2.3 mph 69% 0.00 in 621.00 W/m2
11:42 27.1 °F 18.6 °F 30.58 in NW 2.3 mph 3.4 mph 70% 0.00 in 735.00 W/m2
11:47 27.9 °F 19.7 °F 30.58 in NW 3.4 mph 3.4 mph 71% 0.00 in 578.00 W/m2
11:53 28.0 °F 19.5 °F 30.58 in NW 1.1 mph 2.3 mph 70% 0.00 in 652.00 W/m2
11:58 28.0 °F 19.5 °F 30.58 in NW 4.6 mph 5.8 mph 70% 0.00 in 489.00 W/m2
12:03 28.2 °F 20.0 °F 30.58 in NW 3.4 mph 4.6 mph 71% 0.00 in 587.00 W/m2
12:08 28.2 °F 19.7 °F 30.58 in NW 2.3 mph 3.4 mph 70% 0.00 in 749.00 W/m2
12:13 28.1 °F 19.9 °F 30.58 in NW 4.6 mph 5.8 mph 71% 0.00 in 740.00 W/m2
12:18 28.1 °F 19.9 °F 30.58 in NW 4.6 mph 4.6 mph 71% 0.00 in 684.00 W/m2
12:23 28.3 °F 19.8 °F 30.57 in WNW 3.4 mph 4.6 mph 70% 0.00 in 661.00 W/m2
12:28 28.5 °F 20.3 °F 30.57 in WNW 2.3 mph 3.4 mph 71% 0.00 in 323.00 W/m2
12:33 28.8 °F 20.6 °F 30.56 in WNW 2.3 mph 5.8 mph 71% 0.00 in 396.00 W/m2
12:38 29.5 °F 21.3 °F 30.56 in West 1.1 mph 4.6 mph 71% 0.00 in 707.00 W/m2
12:44 29.2 °F 19.3 °F 30.56 in SSE 2.3 mph 5.8 mph 66% 0.00 in 473.00 W/m2
12:49 29.1 °F 19.5 °F 30.55 in South 2.3 mph 4.6 mph 67% 0.00 in 684.00 W/m2
12:54 29.5 °F 19.6 °F 30.55 in South 1.1 mph 5.8 mph 66% 0.00 in 687.00 W/m2
12:59 29.6 °F 19.6 °F 30.55 in SSE 4.6 mph 5.8 mph 66% 0.00 in 587.00 W/m2
13:04 29.6 °F 19.6 °F 30.55 in South 5.8 mph 5.8 mph 66% 0.00 in 329.00 W/m2
13:09 29.6 °F 19.6 °F 30.55 in South 2.3 mph 8.1 mph 66% 0.00 in 619.00 W/m2
13:14 29.5 °F 19.2 °F 30.55 in South 4.6 mph 8.1 mph 65% 0.00 in 541.00 W/m2
13:19 29.4 °F 19.8 °F 30.54 in South 5.8 mph 11.5 mph 67% 0.00 in 417.00 W/m2
13:24 29.3 °F 19.0 °F 30.53 in South 3.4 mph 8.1 mph 65% 0.00 in 571.00 W/m2
13:30 29.6 °F 19.6 °F 30.53 in South 3.4 mph 8.1 mph 66% 0.00 in 587.00 W/m2
13:35 29.7 °F 19.4 °F 30.53 in South 5.8 mph 8.1 mph 65% 0.00 in 591.00 W/m2
13:40 29.5 °F 18.8 °F 30.53 in South 3.4 mph 5.8 mph 64% 0.00 in 666.00 W/m2
13:45 30.0 °F 19.7 °F 30.53 in South 3.4 mph 4.6 mph 65% 0.00 in 673.00 W/m2
13:50 30.6 °F 19.9 °F 30.52 in South 3.4 mph 8.1 mph 64% 0.00 in 420.00 W/m2
13:55 30.7 °F 19.6 °F 30.52 in South 4.6 mph 5.8 mph 63% 0.00 in 610.00 W/m2
14:00 30.5 °F 19.0 °F 30.52 in South 3.4 mph 8.1 mph 62% 0.00 in 649.00 W/m2
14:05 30.5 °F 19.4 °F 30.52 in South 3.4 mph 8.1 mph 63% 0.00 in 533.00 W/m2
14:11 30.2 °F 19.5 °F 30.52 in South 3.4 mph 5.8 mph 64% 0.00 in 608.00 W/m2
14:16 29.9 °F 18.9 °F 30.51 in SSE 4.6 mph 6.9 mph 63% 0.00 in 536.00 W/m2
14:21 29.7 °F 18.7 °F 30.51 in SSE 5.8 mph 8.1 mph 63% 0.00 in 367.00 W/m2
14:26 29.3 °F 17.9 °F 30.51 in SSE 4.6 mph 5.8 mph 62% 0.00 in 432.00 W/m2
14:31 29.1 °F 17.3 °F 30.51 in SSE 5.8 mph 5.8 mph 61% 0.00 in 262.00 W/m2
14:36 28.9 °F 17.5 °F 30.51 in SSE 4.6 mph 6.9 mph 62% 0.00 in 482.00 W/m2
14:41 28.6 °F 16.9 °F 30.51 in SSE 2.3 mph 5.8 mph 61% 0.00 in 239.00 W/m2
14:46 28.5 °F 16.8 °F 30.50 in SSE 3.4 mph 8.1 mph 61% 0.00 in 211.00 W/m2
14:51 28.3 °F 16.6 °F 30.50 in SSE 3.4 mph 5.8 mph 61% 0.00 in 174.00 W/m2
14:56 28.2 °F 17.2 °F 30.50 in SSE 5.8 mph 6.9 mph 63% 0.00 in 158.00 W/m2
15:01 27.9 °F 16.6 °F 30.50 in SSE 6.9 mph 6.9 mph 62% 0.00 in 109.00 W/m2
15:06 27.9 °F 16.6 °F 30.50 in SSE 5.8 mph 9.2 mph 62% 0.00 in 95.00 W/m2
15:11 28.1 °F 16.8 °F 30.50 in SSE 3.4 mph 6.9 mph 62% 0.00 in 149.00 W/m2
15:16 28.0 °F 16.7 °F 30.50 in SSE 4.6 mph 6.9 mph 62% 0.00 in 98.00 W/m2
15:22 28.0 °F 17.0 °F 30.49 in SSE 5.8 mph 6.9 mph 63% 0.00 in 220.00 W/m2
15:27 28.0 °F 17.4 °F 30.49 in SSE 5.8 mph 5.8 mph 64% 0.00 in 169.00 W/m2
15:32 28.2 °F 17.2 °F 30.49 in SSE 2.3 mph 6.9 mph 63% 0.00 in 271.00 W/m2
15:37 28.2 °F 16.9 °F 30.49 in SSE 3.4 mph 5.8 mph 62% 0.00 in 192.00 W/m2
15:42 28.2 °F 17.2 °F 30.49 in SSE 5.8 mph 5.8 mph 63% 0.00 in 84.00 W/m2
15:47 28.1 °F 16.8 °F 30.49 in SSE 8.1 mph 8.1 mph 62% 0.00 in 139.00 W/m2
15:52 27.9 °F 17.0 °F 30.49 in SSE 3.4 mph 5.8 mph 63% 0.00 in 81.00 W/m2
15:57 28.1 °F 17.5 °F 30.48 in Calm   6.9 mph 64% 0.00 in 70.00 W/m2
16:02 28.0 °F 17.0 °F 30.48 in SSE 4.6 mph 6.9 mph 63% 0.00 in 151.00 W/m2
16:08 28.2 °F 17.2 °F 30.48 in South 9.2 mph 9.2 mph 63% 0.00 in 142.00 W/m2
16:13 28.2 °F 17.2 °F 30.48 in South 4.6 mph 4.6 mph 63% 0.00 in 111.00 W/m2
16:18 28.1 °F 17.5 °F 30.48 in South 3.4 mph 4.6 mph 64% 0.00 in 44.00 W/m2
16:23 27.6 °F 17.0 °F 30.48 in South 2.3 mph 4.6 mph 64% 0.00 in 46.00 W/m2
16:28 27.1 °F 17.3 °F 30.48 in South 5.8 mph 6.9 mph 66% 0.00 in 67.00 W/m2
16:33 27.0 °F 17.5 °F 30.47 in South 3.4 mph 5.8 mph 67% 0.00 in 91.00 W/m2
16:38 27.2 °F 17.7 °F 30.48 in South 4.6 mph 4.6 mph 67% 0.00 in 90.00 W/m2
16:43 27.4 °F 17.9 °F 30.48 in South 2.3 mph 8.1 mph 67% 0.00 in 83.00 W/m2
16:48 27.2 °F 17.7 °F 30.48 in South 2.3 mph 8.1 mph 67% 0.00 in 74.00 W/m2
16:54 27.2 °F 18.0 °F 30.48 in South 5.8 mph 5.8 mph 68% 0.00 in 67.00 W/m2
16:59 27.2 °F 18.4 °F 30.47 in South 3.4 mph 5.8 mph 69% 0.00 in 58.00 W/m2
17:04 27.2 °F 18.7 °F 30.47 in South 2.3 mph 4.6 mph 70% 0.00 in 46.00 W/m2
Peotone Weather Data
Compliments of Weather Underground